Huvudsida
METAR-TAF:

METAR-TAF

Flygplatser :

Rigas internationella flygplats

Riga, Lettland

latitud: 56-55N, longitud: 023-58E, höjd: 10 m

Aktuellt väderrapport

Denna rapport gjordes för 43 minuter sedan, klockan 01:20 UTC
Vind 5 kt från syd
Temperatur 11°C
Fuktighet 94%
Tryck 1010 hPa
Sikt 10 km eller mer
Inga moln under 1 500 m eller inga cumulonimbus

METAR: EVRA 230120Z 18005KT CAVOK 11/10 Q1010 NOSIG

Tid: 05:03 (02:03 UTC)

Väderprognos

Denna rapport gjordes för 3 timmar och 3 minuter sedan, klockan 23:00 UTC
Prognos gäller från 23 kl. 00 UTC till 23 kl. 24 UTC
Vind 7 kt från syd
Sikt 10 km eller mer
Inga moln under 1 500 m eller inga cumulonimbus
Temporärt
från 23 kl. 00 UTC till 23 kl. 06 UTC
Sikt: 3000 m
grunt dimma, fuktdis
Sannolikhet 40% :
Temporärt
från 23 kl. 00 UTC till 23 kl. 06 UTC
Sikt: 0500 m
på en höjd av 100 ft
dimma

TAF: EVRA 222300Z 2300/2324 18007KT CAVOK TEMPO 2300/2306 3000 MIFG BR PROB40 TEMPO 2300/2306 0500 FG VV001

Aktuella väderrapporter och prognoser från 4000 flygplatser (METAR- och TAF-rapporter).

De tillgängliga stationerna syns som gula och röda prickar på kartan.

För musen över prickarna för att se namnen på stationerna.

Klicka sedan för att få väderrapporter och prognoser.

För att ändra kartan: Klicka på de gröna knapparna med ett svart kors på för att zooma in; den gröna knappen med ett streck på för att zooma ut; eller på de gröna pilarna för angränsande kartor.


METAR-TAF: